RS-0008 weather

Sportski Aerodrom "Kozhirsko Polje"
KruĊĦevac, Rasina, Serbia

Public forecast

Using degrees Celsius for public forecast. Weather courtesy of forecast.io.

Closest aviation weather report (METAR) to Sportski Aerodrom "Kozhirsko Polje"

Closest report is Nis Airport, 26.3 nm (48.8 km) ESE. Retrieved 2020/05/27 04:30 UTC (12 minutes ago):

LYNI 270430Z 32009KT 290V030 9999 SCT012 BKN017 11/09 Q1023 NOSIG

Closest aviation forecast (TAF) to Sportski Aerodrom "Kozhirsko Polje"

Closest forecast is Nis Airport, 26.3 nm (48.8 km) ESE. Retrieved 2020-05-27 00:44 UTC (4 hours ago):

TAF LYNI 262300Z 2700/2724 32014KT 9999 SCT015 BKN035 TX18/2713Z TN09/2703Z TEMPO 2702/2705 3000 BR BKN010 TEMPO 2714/2719 4000 TSRA SCT027CB BKN033